sensor_id;sensor_type;location;lat;lon;timestamp;pressure;altitude;pressure_sealevel;temperature;humidity
15529;BME280;7866;52.280;9.500;2022-08-05T00:05:03;100175.34;;;22.26;69.17
15529;BME280;7866;52.280;9.500;2022-08-05T00:10:05;100189.13;;;22.03;69.71
15529;BME280;7866;52.280;9.500;2022-08-05T00:15:07;100179.75;;;21.65;71.71
15529;BME280;7866;52.280;9.500;2022-08-05T00:20:11;100191.53;;;21.54;71.77
15529;BME280;7866;52.280;9.500;2022-08-05T00:25:12;100201.06;;;21.68;71.21
15529;BME280;7866;52.280;9.500;2022-08-05T00:30:14;100190.03;;;21.75;71.74
15529;BME280;7866;52.280;9.500;2022-08-05T00:35:17;100200.34;;;21.73;72.34
15529;BME280;7866;52.280;9.500;2022-08-05T00:40:20;100185.84;;;21.38;72.07
15529;BME280;7866;52.280;9.500;2022-08-05T00:45:22;100170.25;;;21.51;72.01
15529;BME280;7866;52.280;9.500;2022-08-05T00:50:25;100166.03;;;21.43;72.06
15529;BME280;7866;52.280;9.500;2022-08-05T00:55:27;100174.34;;;21.36;72.75
15529;BME280;7866;52.280;9.500;2022-08-05T01:00:29;100164.06;;;21.55;72.02
15529;BME280;7866;52.280;9.500;2022-08-05T01:05:33;100166.47;;;21.69;71.51
15529;BME280;7866;52.280;9.500;2022-08-05T01:10:39;100152.97;;;21.16;73.51
15529;BME280;7866;52.280;9.500;2022-08-05T01:15:46;100161.06;;;21.40;73.68
15529;BME280;7866;52.280;9.500;2022-08-05T01:21:00;100162.72;;;21.58;72.50
15529;BME280;7866;52.280;9.500;2022-08-05T01:26:17;100154.19;;;21.37;73.78
15529;BME280;7866;52.280;9.500;2022-08-05T01:31:26;100174.81;;;21.96;71.77
15529;BME280;7866;52.280;9.500;2022-08-05T01:36:31;100189.53;;;21.95;71.69
15529;BME280;7866;52.280;9.500;2022-08-05T01:41:34;100185.59;;;21.57;72.73
15529;BME280;7866;52.280;9.500;2022-08-05T01:46:40;100158.25;;;21.35;73.77
15529;BME280;7866;52.280;9.500;2022-08-05T01:51:43;100134.16;;;21.44;73.48
15529;BME280;7866;52.280;9.500;2022-08-05T01:56:45;100128.56;;;21.67;73.50
15529;BME280;7866;52.280;9.500;2022-08-05T02:01:52;100140.59;;;21.54;73.87
15529;BME280;7866;52.280;9.500;2022-08-05T02:06:55;100143.34;;;21.71;73.90
15529;BME280;7866;52.280;9.500;2022-08-05T02:12:02;100124.59;;;21.75;74.20
15529;BME280;7866;52.280;9.500;2022-08-05T02:17:19;100093.44;;;21.54;74.76
15529;BME280;7866;52.280;9.500;2022-08-05T02:22:27;100075.09;;;21.66;75.38
15529;BME280;7866;52.280;9.500;2022-08-05T02:27:34;100068.06;;;21.70;74.48
15529;BME280;7866;52.280;9.500;2022-08-05T02:32:39;100080.41;;;21.39;76.59
15529;BME280;7866;52.280;9.500;2022-08-05T02:37:42;100056.25;;;21.31;77.57
15529;BME280;7866;52.280;9.500;2022-08-05T02:42:45;100054.22;;;21.38;76.44
15529;BME280;7866;52.280;9.500;2022-08-05T02:47:50;100026.19;;;21.26;77.01
15529;BME280;7866;52.280;9.500;2022-08-05T02:52:54;100019.03;;;21.20;77.11
15529;BME280;7866;52.280;9.500;2022-08-05T02:57:57;100034.22;;;21.15;76.29
15529;BME280;7866;52.280;9.500;2022-08-05T03:03:02;100051.28;;;21.11;75.55
15529;BME280;7866;52.280;9.500;2022-08-05T03:08:06;100062.13;;;21.23;75.80
15529;BME280;7866;52.280;9.500;2022-08-05T03:13:13;100073.84;;;21.23;75.04
15529;BME280;7866;52.280;9.500;2022-08-05T03:18:16;100093.47;;;21.25;74.57
15529;BME280;7866;52.280;9.500;2022-08-05T03:23:18;100101.94;;;21.12;75.13
15529;BME280;7866;52.280;9.500;2022-08-05T03:28:20;100117.13;;;20.79;75.81
15529;BME280;7866;52.280;9.500;2022-08-05T03:33:24;100120.59;;;21.03;75.71
15529;BME280;7866;52.280;9.500;2022-08-05T03:38:26;100108.38;;;20.77;76.20
15529;BME280;7866;52.280;9.500;2022-08-05T03:43:28;100111.81;;;20.73;77.14
15529;BME280;7866;52.280;9.500;2022-08-05T03:48:31;100087.66;;;20.76;76.69
15529;BME280;7866;52.280;9.500;2022-08-05T03:53:36;100093.09;;;20.76;76.66
15529;BME280;7866;52.280;9.500;2022-08-05T03:58:43;100092.03;;;20.77;76.36
15529;BME280;7866;52.280;9.500;2022-08-05T04:03:48;100100.44;;;20.76;76.52
15529;BME280;7866;52.280;9.500;2022-08-05T04:08:51;100119.50;;;20.76;76.14
15529;BME280;7866;52.280;9.500;2022-08-05T04:13:54;100130.13;;;20.77;76.20
15529;BME280;7866;52.280;9.500;2022-08-05T04:18:57;100133.72;;;20.66;76.27
15529;BME280;7866;52.280;9.500;2022-08-05T04:23:59;100145.41;;;20.66;76.92
15529;BME280;7866;52.280;9.500;2022-08-05T04:29:01;100151.69;;;20.79;77.69
15529;BME280;7866;52.280;9.500;2022-08-05T04:34:04;100148.41;;;20.53;77.33
15529;BME280;7866;52.280;9.500;2022-08-05T04:39:05;100143.22;;;20.28;79.15
15529;BME280;7866;52.280;9.500;2022-08-05T04:44:07;100149.59;;;20.57;79.55
15529;BME280;7866;52.280;9.500;2022-08-05T04:49:10;100166.16;;;20.56;78.18
15529;BME280;7866;52.280;9.500;2022-08-05T04:54:12;100148.75;;;20.45;79.27
15529;BME280;7866;52.280;9.500;2022-08-05T04:59:14;100158.94;;;20.03;81.76
15529;BME280;7866;52.280;9.500;2022-08-05T05:04:17;100149.94;;;20.26;81.51
15529;BME280;7866;52.280;9.500;2022-08-05T05:09:19;100134.47;;;20.03;81.50
15529;BME280;7866;52.280;9.500;2022-08-05T05:14:21;100140.63;;;20.10;80.74
15529;BME280;7866;52.280;9.500;2022-08-05T05:19:24;100143.13;;;20.00;81.46
15529;BME280;7866;52.280;9.500;2022-08-05T05:24:26;100154.22;;;20.10;81.22
15529;BME280;7866;52.280;9.500;2022-08-05T05:29:27;100175.75;;;20.35;80.78
15529;BME280;7866;52.280;9.500;2022-08-05T05:34:30;100165.31;;;19.97;80.71
15529;BME280;7866;52.280;9.500;2022-08-05T05:39:32;100165.78;;;20.05;81.54
15529;BME280;7866;52.280;9.500;2022-08-05T05:44:34;100173.97;;;20.17;79.71
15529;BME280;7866;52.280;9.500;2022-08-05T05:49:37;100176.78;;;20.10;80.00
15529;BME280;7866;52.280;9.500;2022-08-05T05:54:39;100201.72;;;20.42;78.24
15529;BME280;7866;52.280;9.500;2022-08-05T05:59:41;100231.78;;;20.48;79.43
15529;BME280;7866;52.280;9.500;2022-08-05T06:04:44;100309.84;;;20.35;80.24
15529;BME280;7866;52.280;9.500;2022-08-05T06:09:45;100213.09;;;20.16;82.20
15529;BME280;7866;52.280;9.500;2022-08-05T06:14:47;100186.47;;;19.94;83.77
15529;BME280;7866;52.280;9.500;2022-08-05T06:19:50;100201.63;;;20.14;82.60
15529;BME280;7866;52.280;9.500;2022-08-05T06:24:52;100198.19;;;20.18;82.58
15529;BME280;7866;52.280;9.500;2022-08-05T06:29:53;100200.09;;;20.30;81.46
15529;BME280;7866;52.280;9.500;2022-08-05T06:34:56;100182.13;;;20.17;82.31
15529;BME280;7866;52.280;9.500;2022-08-05T06:39:58;100182.38;;;20.15;82.23
15529;BME280;7866;52.280;9.500;2022-08-05T06:45:00;100162.84;;;20.30;81.42
15529;BME280;7866;52.280;9.500;2022-08-05T06:50:04;100154.56;;;20.49;80.80
15529;BME280;7866;52.280;9.500;2022-08-05T06:55:06;100149.38;;;20.59;80.64
15529;BME280;7866;52.280;9.500;2022-08-05T07:00:09;100155.53;;;19.96;82.60
15529;BME280;7866;52.280;9.500;2022-08-05T07:05:13;100171.16;;;19.28;84.62
15529;BME280;7866;52.280;9.500;2022-08-05T07:10:15;100177.03;;;19.25;84.80
15529;BME280;7866;52.280;9.500;2022-08-05T07:15:17;100194.53;;;19.29;85.62
15529;BME280;7866;52.280;9.500;2022-08-05T07:20:38;100207.25;;;19.47;84.65
15529;BME280;7866;52.280;9.500;2022-08-05T07:25:40;100207.25;;;19.59;85.99
15529;BME280;7866;52.280;9.500;2022-08-05T07:30:43;100194.97;;;19.86;84.47
15529;BME280;7866;52.280;9.500;2022-08-05T07:35:46;100222.38;;;19.55;84.50
15529;BME280;7866;52.280;9.500;2022-08-05T07:40:48;100208.34;;;19.28;85.53
15529;BME280;7866;52.280;9.500;2022-08-05T07:45:50;100208.38;;;18.91;87.43
15529;BME280;7866;52.280;9.500;2022-08-05T07:50:53;100191.22;;;19.27;87.20
15529;BME280;7866;52.280;9.500;2022-08-05T07:55:54;100164.41;;;19.19;86.11
15529;BME280;7866;52.280;9.500;2022-08-05T08:00:56;100180.19;;;19.40;86.21
15529;BME280;7866;52.280;9.500;2022-08-05T08:05:59;100197.66;;;19.44;86.18
15529;BME280;7866;52.280;9.500;2022-08-05T08:11:01;100195.06;;;19.50;85.87
15529;BME280;7866;52.280;9.500;2022-08-05T08:16:03;100200.16;;;19.16;86.63
15529;BME280;7866;52.280;9.500;2022-08-05T08:21:06;100191.81;;;19.29;85.20
15529;BME280;7866;52.280;9.500;2022-08-05T08:26:08;100202.25;;;19.14;86.22
15529;BME280;7866;52.280;9.500;2022-08-05T08:31:10;100221.88;;;19.16;87.25
15529;BME280;7866;52.280;9.500;2022-08-05T08:36:13;100215.50;;;19.22;86.48
15529;BME280;7866;52.280;9.500;2022-08-05T08:41:14;100209.66;;;19.07;86.41
15529;BME280;7866;52.280;9.500;2022-08-05T08:46:18;100229.19;;;19.64;84.64
15529;BME280;7866;52.280;9.500;2022-08-05T08:51:22;100240.88;;;19.64;84.13
15529;BME280;7866;52.280;9.500;2022-08-05T08:56:25;100249.31;;;19.56;83.66
15529;BME280;7866;52.280;9.500;2022-08-05T09:01:27;100254.38;;;19.04;84.50
15529;BME280;7866;52.280;9.500;2022-08-05T09:06:30;100262.84;;;19.63;84.79
15529;BME280;7866;52.280;9.500;2022-08-05T09:11:32;100267.97;;;19.53;83.30
15529;BME280;7866;52.280;9.500;2022-08-05T09:16:37;100261.34;;;19.49;83.85
15529;BME280;7866;52.280;9.500;2022-08-05T09:21:40;100269.63;;;19.72;83.82
15529;BME280;7866;52.280;9.500;2022-08-05T09:26:45;100286.13;;;19.71;82.88
15529;BME280;7866;52.280;9.500;2022-08-05T09:32:00;100282.53;;;19.88;82.30
15529;BME280;7866;52.280;9.500;2022-08-05T09:37:15;100292.13;;;19.91;81.99
15529;BME280;7866;52.280;9.500;2022-08-05T09:42:19;100292.69;;;19.81;80.85
15529;BME280;7866;52.280;9.500;2022-08-05T09:47:23;100286.47;;;19.92;80.91
15529;BME280;7866;52.280;9.500;2022-08-05T09:52:28;100295.25;;;20.18;79.84
15529;BME280;7866;52.280;9.500;2022-08-05T09:57:32;100301.31;;;20.20;79.39
15529;BME280;7866;52.280;9.500;2022-08-05T10:02:35;100290.72;;;20.00;78.86
15529;BME280;7866;52.280;9.500;2022-08-05T10:07:50;100293.47;;;19.70;79.06
15529;BME280;7866;52.280;9.500;2022-08-05T10:12:55;100284.41;;;19.58;79.30
15529;BME280;7866;52.280;9.500;2022-08-05T10:18:11;100364.84;;;19.59;79.97
15529;BME280;7866;52.280;9.500;2022-08-05T10:23:16;100322.63;;;19.63;81.14
15529;BME280;7866;52.280;9.500;2022-08-05T10:28:18;100374.53;;;19.36;82.55
15529;BME280;7866;52.280;9.500;2022-08-05T10:33:21;100361.00;;;19.48;83.07
15529;BME280;7866;52.280;9.500;2022-08-05T10:38:28;100363.38;;;19.63;82.89
15529;BME280;7866;52.280;9.500;2022-08-05T10:43:36;100366.13;;;19.75;83.64
15529;BME280;7866;52.280;9.500;2022-08-05T10:48:42;100369.97;;;19.30;83.87
15529;BME280;7866;52.280;9.500;2022-08-05T10:53:52;100372.84;;;19.54;85.30
15529;BME280;7866;52.280;9.500;2022-08-05T10:59:03;100375.66;;;19.47;84.49
15529;BME280;7866;52.280;9.500;2022-08-05T11:04:07;100375.88;;;19.45;83.58
15529;BME280;7866;52.280;9.500;2022-08-05T11:09:17;100379.03;;;19.42;84.80
15529;BME280;7866;52.280;9.500;2022-08-05T11:14:23;100379.47;;;19.58;84.85
15529;BME280;7866;52.280;9.500;2022-08-05T11:19:27;100392.03;;;19.40;84.02
15529;BME280;7866;52.280;9.500;2022-08-05T11:24:31;100401.84;;;19.60;83.79
15529;BME280;7866;52.280;9.500;2022-08-05T11:29:34;100400.03;;;19.35;83.69
15529;BME280;7866;52.280;9.500;2022-08-05T11:34:38;100396.84;;;19.38;83.88
15529;BME280;7866;52.280;9.500;2022-08-05T11:39:49;100404.75;;;19.58;84.10
15529;BME280;7866;52.280;9.500;2022-08-05T11:44:58;100416.03;;;19.43;83.96
15529;BME280;7866;52.280;9.500;2022-08-05T11:50:02;100425.44;;;19.41;84.53
15529;BME280;7866;52.280;9.500;2022-08-05T11:55:06;100445.72;;;19.20;84.93
15529;BME280;7866;52.280;9.500;2022-08-05T12:00:24;100462.34;;;19.05;86.03
15529;BME280;7866;52.280;9.500;2022-08-05T12:05:27;100451.84;;;19.34;85.50
15529;BME280;7866;52.280;9.500;2022-08-05T12:10:31;100461.47;;;19.30;84.92
15529;BME280;7866;52.280;9.500;2022-08-05T12:15:36;100460.47;;;19.49;84.67
15529;BME280;7866;52.280;9.500;2022-08-05T12:20:38;100485.19;;;19.41;84.48
15529;BME280;7866;52.280;9.500;2022-08-05T12:25:51;100489.25;;;19.07;85.30
15529;BME280;7866;52.280;9.500;2022-08-05T12:30:55;100494.75;;;19.00;85.38
15529;BME280;7866;52.280;9.500;2022-08-05T12:35:57;100503.94;;;19.24;85.43
15529;BME280;7866;52.280;9.500;2022-08-05T12:41:00;100515.03;;;19.48;84.70
15529;BME280;7866;52.280;9.500;2022-08-05T12:46:02;100504.00;;;19.67;84.42
15529;BME280;7866;52.280;9.500;2022-08-05T12:51:14;100512.84;;;20.00;82.64
15529;BME280;7866;52.280;9.500;2022-08-05T12:56:21;100515.34;;;19.83;82.16
15529;BME280;7866;52.280;9.500;2022-08-05T13:01:23;100514.84;;;19.42;81.87
15529;BME280;7866;52.280;9.500;2022-08-05T13:06:26;100511.25;;;19.92;80.93
15529;BME280;7866;52.280;9.500;2022-08-05T13:11:30;100519.47;;;19.85;79.98
15529;BME280;7866;52.280;9.500;2022-08-05T13:16:31;100517.34;;;20.06;79.76
15529;BME280;7866;52.280;9.500;2022-08-05T13:21:33;100519.81;;;19.71;78.91
15529;BME280;7866;52.280;9.500;2022-08-05T13:26:36;100504.00;;;19.67;79.16
15529;BME280;7866;52.280;9.500;2022-08-05T13:31:38;100513.13;;;19.73;77.36
15529;BME280;7866;52.280;9.500;2022-08-05T13:36:41;100534.88;;;19.48;78.66
15529;BME280;7866;52.280;9.500;2022-08-05T13:41:44;100547.19;;;19.76;78.21
15529;BME280;7866;52.280;9.500;2022-08-05T13:46:46;100558.72;;;20.26;77.26
15529;BME280;7866;52.280;9.500;2022-08-05T13:51:48;100561.06;;;20.23;75.98
15529;BME280;7866;52.280;9.500;2022-08-05T13:56:51;100562.16;;;20.03;76.75
15529;BME280;7866;52.280;9.500;2022-08-05T14:01:53;100561.69;;;20.25;76.33
15529;BME280;7866;52.280;9.500;2022-08-05T14:06:55;100564.63;;;20.60;75.28
15529;BME280;7866;52.280;9.500;2022-08-05T14:11:58;100566.38;;;20.54;75.36
15529;BME280;7866;52.280;9.500;2022-08-05T14:17:00;100567.75;;;21.35;74.11
15529;BME280;7866;52.280;9.500;2022-08-05T14:22:02;100578.09;;;21.15;73.48
15529;BME280;7866;52.280;9.500;2022-08-05T14:27:06;100582.91;;;21.90;71.97
15529;BME280;7866;52.280;9.500;2022-08-05T14:32:07;100576.78;;;21.95;70.66
15529;BME280;7866;52.280;9.500;2022-08-05T14:37:09;100585.06;;;21.64;71.38
15529;BME280;7866;52.280;9.500;2022-08-05T14:42:12;100594.31;;;21.75;71.41
15529;BME280;7866;52.280;9.500;2022-08-05T14:47:14;100604.03;;;21.59;71.71
15529;BME280;7866;52.280;9.500;2022-08-05T14:52:16;100597.13;;;21.03;72.77
15529;BME280;7866;52.280;9.500;2022-08-05T14:57:19;100592.72;;;21.02;73.22
15529;BME280;7866;52.280;9.500;2022-08-05T15:02:20;100591.13;;;21.25;73.76
15529;BME280;7866;52.280;9.500;2022-08-05T15:07:22;100600.69;;;21.57;72.03
15529;BME280;7866;52.280;9.500;2022-08-05T15:12:25;100610.06;;;21.73;71.71
15529;BME280;7866;52.280;9.500;2022-08-05T15:17:27;100608.28;;;21.55;71.12
15529;BME280;7866;52.280;9.500;2022-08-05T15:22:28;100599.84;;;21.45;71.75
15529;BME280;7866;52.280;9.500;2022-08-05T15:27:31;100602.03;;;21.55;70.29
15529;BME280;7866;52.280;9.500;2022-08-05T15:32:33;100608.19;;;21.85;69.86
15529;BME280;7866;52.280;9.500;2022-08-05T15:37:35;100597.66;;;22.65;67.75
15529;BME280;7866;52.280;9.500;2022-08-05T15:42:38;100604.28;;;22.69;66.33
15529;BME280;7866;52.280;9.500;2022-08-05T15:47:41;100602.88;;;22.66;66.37
15529;BME280;7866;52.280;9.500;2022-08-05T15:52:43;100605.97;;;22.58;66.00
15529;BME280;7866;52.280;9.500;2022-08-05T15:57:46;100603.94;;;22.13;67.97
15529;BME280;7866;52.280;9.500;2022-08-05T16:02:48;100597.44;;;22.66;66.61
15529;BME280;7866;52.280;9.500;2022-08-05T16:07:49;100607.00;;;22.05;66.70
15529;BME280;7866;52.280;9.500;2022-08-05T16:12:52;100605.81;;;22.24;67.82
15529;BME280;7866;52.280;9.500;2022-08-05T16:17:54;100607.59;;;22.07;66.71
15529;BME280;7866;52.280;9.500;2022-08-05T16:22:56;100610.31;;;21.72;68.26
15529;BME280;7866;52.280;9.500;2022-08-05T16:28:01;100615.28;;;21.63;67.29
15529;BME280;7866;52.280;9.500;2022-08-05T16:33:03;100614.78;;;21.54;68.53
15529;BME280;7866;52.280;9.500;2022-08-05T16:38:05;100619.28;;;21.49;68.24
15529;BME280;7866;52.280;9.500;2022-08-05T16:43:08;100620.47;;;21.53;68.75
15529;BME280;7866;52.280;9.500;2022-08-05T16:48:09;100627.84;;;21.52;68.13
15529;BME280;7866;52.280;9.500;2022-08-05T16:53:11;100636.41;;;21.68;68.42
15529;BME280;7866;52.280;9.500;2022-08-05T16:58:14;100632.44;;;21.40;67.37
15529;BME280;7866;52.280;9.500;2022-08-05T17:03:16;100653.16;;;21.41;66.43
15529;BME280;7866;52.280;9.500;2022-08-05T17:08:18;100658.75;;;21.58;62.71
15529;BME280;7866;52.280;9.500;2022-08-05T17:13:21;100654.66;;;21.79;59.50
15529;BME280;7866;52.280;9.500;2022-08-05T17:18:23;100658.44;;;21.78;57.71
15529;BME280;7866;52.280;9.500;2022-08-05T17:23:24;100663.38;;;21.57;57.91
15529;BME280;7866;52.280;9.500;2022-08-05T17:28:27;100668.44;;;21.42;58.17
15529;BME280;7866;52.280;9.500;2022-08-05T17:33:29;100680.75;;;21.33;58.27
15529;BME280;7866;52.280;9.500;2022-08-05T17:38:31;100688.69;;;21.16;56.52
15529;BME280;7866;52.280;9.500;2022-08-05T17:43:34;100714.91;;;20.99;57.23
15529;BME280;7866;52.280;9.500;2022-08-05T17:48:35;100700.94;;;20.77;57.27
15529;BME280;7866;52.280;9.500;2022-08-05T17:53:37;100712.81;;;20.64;57.10
15529;BME280;7866;52.280;9.500;2022-08-05T17:58:40;100727.47;;;20.63;57.87
15529;BME280;7866;52.280;9.500;2022-08-05T18:03:42;100733.53;;;20.40;58.05
15529;BME280;7866;52.280;9.500;2022-08-05T18:08:44;100740.09;;;20.32;57.90
15529;BME280;7866;52.280;9.500;2022-08-05T18:13:47;100745.53;;;20.32;58.36
15529;BME280;7866;52.280;9.500;2022-08-05T18:18:49;100753.44;;;20.15;58.30
15529;BME280;7866;52.280;9.500;2022-08-05T18:23:50;100769.00;;;20.02;57.43
15529;BME280;7866;52.280;9.500;2022-08-05T18:28:53;100780.00;;;19.82;58.38
15529;BME280;7866;52.280;9.500;2022-08-05T18:33:56;100785.31;;;19.70;58.64
15529;BME280;7866;52.280;9.500;2022-08-05T18:38:57;100798.13;;;19.63;58.64
15529;BME280;7866;52.280;9.500;2022-08-05T18:44:00;100813.22;;;19.45;58.38
15529;BME280;7866;52.280;9.500;2022-08-05T18:49:02;100820.53;;;19.45;58.33
15529;BME280;7866;52.280;9.500;2022-08-05T18:54:17;100825.97;;;19.38;58.83
15529;BME280;7866;52.280;9.500;2022-08-05T18:59:20;100836.03;;;19.38;59.66
15529;BME280;7866;52.280;9.500;2022-08-05T19:04:22;100841.56;;;19.05;61.20
15529;BME280;7866;52.280;9.500;2022-08-05T19:09:24;100843.91;;;18.81;62.35
15529;BME280;7866;52.280;9.500;2022-08-05T19:14:27;100847.25;;;18.70;63.55
15529;BME280;7866;52.280;9.500;2022-08-05T19:19:29;100862.47;;;18.51;64.37
15529;BME280;7866;52.280;9.500;2022-08-05T19:24:31;100861.63;;;18.37;64.52
15529;BME280;7866;52.280;9.500;2022-08-05T19:29:34;100864.72;;;18.08;64.65
15529;BME280;7866;52.280;9.500;2022-08-05T19:34:36;100881.81;;;18.15;64.66
15529;BME280;7866;52.280;9.500;2022-08-05T19:39:38;100892.84;;;18.07;64.25
15529;BME280;7866;52.280;9.500;2022-08-05T19:44:41;100903.66;;;17.93;64.82
15529;BME280;7866;52.280;9.500;2022-08-05T19:49:43;100905.22;;;17.68;64.15
15529;BME280;7866;52.280;9.500;2022-08-05T19:54:44;100915.06;;;17.76;64.47
15529;BME280;7866;52.280;9.500;2022-08-05T19:59:47;100917.22;;;17.59;64.58
15529;BME280;7866;52.280;9.500;2022-08-05T20:04:50;100919.88;;;17.45;64.57
15529;BME280;7866;52.280;9.500;2022-08-05T20:09:52;100931.19;;;17.56;64.13
15529;BME280;7866;52.280;9.500;2022-08-05T20:14:55;100942.81;;;17.49;63.57
15529;BME280;7866;52.280;9.500;2022-08-05T20:19:56;100953.16;;;17.39;63.81
15529;BME280;7866;52.280;9.500;2022-08-05T20:25:00;100958.09;;;17.29;64.15
15529;BME280;7866;52.280;9.500;2022-08-05T20:30:04;100961.81;;;17.21;63.86
15529;BME280;7866;52.280;9.500;2022-08-05T20:35:08;100963.59;;;17.36;64.14
15529;BME280;7866;52.280;9.500;2022-08-05T20:40:10;100983.00;;;17.18;63.90
15529;BME280;7866;52.280;9.500;2022-08-05T20:45:13;101002.09;;;17.10;63.98
15529;BME280;7866;52.280;9.500;2022-08-05T20:50:15;100999.34;;;17.03;63.87
15529;BME280;7866;52.280;9.500;2022-08-05T20:55:17;100998.84;;;16.93;63.95
15529;BME280;7866;52.280;9.500;2022-08-05T21:00:20;101005.34;;;16.98;63.83
15529;BME280;7866;52.280;9.500;2022-08-05T21:05:22;101010.84;;;16.84;64.11
15529;BME280;7866;52.280;9.500;2022-08-05T21:10:24;101011.47;;;16.86;63.81
15529;BME280;7866;52.280;9.500;2022-08-05T21:15:27;101012.81;;;16.75;63.59
15529;BME280;7866;52.280;9.500;2022-08-05T21:20:29;101005.59;;;16.82;63.51
15529;BME280;7866;52.280;9.500;2022-08-05T21:25:31;101015.25;;;16.91;62.63
15529;BME280;7866;52.280;9.500;2022-08-05T21:30:34;101012.97;;;16.88;63.10
15529;BME280;7866;52.280;9.500;2022-08-05T21:35:36;101015.25;;;16.70;63.68
15529;BME280;7866;52.280;9.500;2022-08-05T21:40:37;101020.56;;;16.78;63.25
15529;BME280;7866;52.280;9.500;2022-08-05T21:45:41;101021.69;;;16.69;63.67
15529;BME280;7866;52.280;9.500;2022-08-05T21:50:42;101023.47;;;16.77;62.84
15529;BME280;7866;52.280;9.500;2022-08-05T21:55:44;101019.72;;;16.78;62.90
15529;BME280;7866;52.280;9.500;2022-08-05T22:00:48;101036.75;;;16.57;63.29
15529;BME280;7866;52.280;9.500;2022-08-05T22:05:49;101037.16;;;16.39;63.68
15529;BME280;7866;52.280;9.500;2022-08-05T22:10:51;101037.31;;;16.52;63.38
15529;BME280;7866;52.280;9.500;2022-08-05T22:15:54;101042.28;;;16.48;63.78
15529;BME280;7866;52.280;9.500;2022-08-05T22:20:56;101042.66;;;16.45;63.83
15529;BME280;7866;52.280;9.500;2022-08-05T22:25:58;101055.56;;;16.29;64.54
15529;BME280;7866;52.280;9.500;2022-08-05T22:31:18;101056.56;;;16.27;64.71
15529;BME280;7866;52.280;9.500;2022-08-05T22:36:20;101052.66;;;16.30;64.62
15529;BME280;7866;52.280;9.500;2022-08-05T22:41:22;101059.19;;;16.21;64.80
15529;BME280;7866;52.280;9.500;2022-08-05T22:46:26;101065.72;;;16.12;64.92
15529;BME280;7866;52.280;9.500;2022-08-05T22:51:27;101062.09;;;16.05;65.50
15529;BME280;7866;52.280;9.500;2022-08-05T22:56:29;101070.47;;;16.10;65.48
15529;BME280;7866;52.280;9.500;2022-08-05T23:01:32;101084.44;;;15.98;64.60
15529;BME280;7866;52.280;9.500;2022-08-05T23:06:34;101081.38;;;16.01;65.62
15529;BME280;7866;52.280;9.500;2022-08-05T23:11:36;101076.63;;;15.89;66.45
15529;BME280;7866;52.280;9.500;2022-08-05T23:16:39;101080.53;;;15.86;67.02
15529;BME280;7866;52.280;9.500;2022-08-05T23:21:58;101083.03;;;15.73;67.24
15529;BME280;7866;52.280;9.500;2022-08-05T23:27:00;101080.81;;;15.76;67.49
15529;BME280;7866;52.280;9.500;2022-08-05T23:32:04;101089.69;;;15.62;67.60
15529;BME280;7866;52.280;9.500;2022-08-05T23:37:05;101084.84;;;15.58;68.08
15529;BME280;7866;52.280;9.500;2022-08-05T23:42:07;101098.53;;;15.56;68.62
15529;BME280;7866;52.280;9.500;2022-08-05T23:47:10;101106.59;;;15.41;68.79
15529;BME280;7866;52.280;9.500;2022-08-05T23:52:12;101111.22;;;15.33;69.39
15529;BME280;7866;52.280;9.500;2022-08-05T23:57:34;101122.13;;;15.39;69.12
